LWSK/SKP METAR and TAF weather

Enter ICAO airport designator
Station Type Date Time Source
LWSK METAR 2019/02/21 16:00 UTC NOAA

LWSK 211600Z 02007KT CAVOK 12/M04 Q1024 NOSIG


Station Type Date Time Source
LWSK Decoded METAR 2019/02/21 16:00 UTC NOAA

Skopje-Petrovec, Macedonia, The Republic of (LWSK) 41-58N 021-39E 239M
Feb 21, 2019 - 11:00 AM EST / 2019.02.21 1600 UTC
Wind: from the NNE (020 degrees) at 8 MPH (7 KT):0
Visibility: greater than 7 mile(s):0
Temperature: 53 F (12 C)
Dew Point: 24 F (-4 C)
Relative Humidity: 32%
Pressure (altimeter): 30.24 in. Hg (1024 hPa)
ob: LWSK 211600Z 02007KT CAVOK 12/M04 Q1024 NOSIG
cycle: 16

Station Type Date Time Source
LWSK TAF 2019/02/21 15:33 UTC NOAA

TAF LWSK 211430Z 2115/2215 27005KT CAVOK
TEMPO 2115/2118 36010KT


Example: see airport list